Leetonia, Minnesota
Current Conditions -  °F | °C
As of 3:53 AM on Sunday 23 Nov 2014 (Local Time) from KHIB Reporting Station
Haze Haze  
Wind Chill: 29°   Ceiling: 200
Heat Index: 34°   Visibility: 1mi
Dew Point: 32°   Wind: 6mph
Humidity: 92%   Direction: 140°SE
Pressure: 29.4"   Gusts: NA
Location:  47.4158°N, 93.0053°W
Report Text: KHIB 230953Z AUTO 14005KT 1SM BR OVC002 01/00 A2940 RMK AO2 SLP968 T00110000
Loading
Personal Weather Stations






























Interactive Weather Map New forecast layout! Learn more

10-Day Weather Forecast

Advertisements
Track Severe Weather on mobile